createdAt,value
2022-11-02T00:01:27.669Z,24.40
2022-11-02T00:03:57.492Z,24.63
2022-11-02T00:06:25.582Z,24.60
2022-11-02T00:08:53.754Z,25.65
2022-11-02T00:11:21.760Z,26.25
2022-11-02T00:13:50.192Z,23.67
2022-11-02T00:16:20.419Z,23.95
2022-11-02T00:18:52.512Z,24.05
2022-11-02T00:21:26.985Z,24.10
2022-11-02T00:23:57.253Z,23.42
2022-11-02T00:26:26.105Z,25.88
2022-11-02T00:28:54.525Z,24.15
2022-11-02T00:31:22.607Z,25.95
2022-11-02T00:33:51.229Z,24.75
2022-11-02T00:36:19.222Z,24.88
2022-11-02T00:38:49.080Z,26.20
2022-11-02T00:41:19.531Z,24.27
2022-11-02T00:43:47.890Z,22.33
2022-11-02T00:46:16.031Z,24.65
2022-11-02T00:48:44.058Z,23.38
2022-11-02T00:51:13.103Z,25.45
2022-11-02T00:53:43.467Z,24.80
2022-11-02T00:56:13.361Z,23.30
2022-11-02T00:58:43.672Z,23.30
2022-11-02T01:01:13.088Z,24.38
2022-11-02T01:03:41.282Z,25.60
2022-11-02T01:06:12.368Z,24.75
2022-11-02T01:08:40.717Z,22.60
2022-11-02T01:11:17.923Z,23.45
2022-11-02T01:13:47.055Z,26.00
2022-11-02T01:16:16.281Z,23.08
2022-11-02T01:18:44.779Z,22.67
2022-11-02T01:21:13.906Z,24.40
2022-11-02T01:23:42.007Z,22.90
2022-11-02T01:26:12.306Z,23.17
2022-11-02T01:28:43.504Z,26.67
2022-11-02T01:31:12.703Z,24.00
2022-11-02T01:33:45.249Z,23.08
2022-11-02T01:36:15.964Z,23.83
2022-11-02T01:38:44.140Z,23.33
2022-11-02T01:41:13.690Z,23.50
2022-11-02T01:43:45.086Z,22.90
2022-11-02T01:46:19.957Z,23.88
2022-11-02T01:48:51.455Z,23.73
2022-11-02T01:51:24.003Z,22.90
2022-11-02T01:53:53.729Z,23.75
2022-11-02T01:56:25.080Z,25.58
2022-11-02T01:58:57.916Z,22.58
2022-11-02T02:01:27.094Z,23.08
2022-11-02T02:03:57.350Z,21.48
2022-11-02T02:06:26.984Z,24.80
2022-11-02T02:09:00.174Z,23.52
2022-11-02T02:11:32.766Z,23.77
2022-11-02T02:14:07.544Z,20.88
2022-11-02T02:17:15.473Z,23.23
2022-11-02T02:19:51.591Z,20.20
2022-11-02T02:22:57.539Z,23.98
2022-11-02T02:25:51.834Z,23.27
2022-11-02T02:28:30.522Z,20.05
2022-11-02T02:31:03.677Z,21.65
2022-11-02T02:33:34.693Z,22.23
2022-11-02T02:36:10.561Z,21.60
2022-11-02T02:38:46.660Z,23.25
2022-11-02T02:41:20.531Z,22.55
2022-11-02T02:43:53.201Z,23.20
2022-11-02T02:46:25.175Z,21.88
2022-11-02T02:48:57.840Z,22.38
2022-11-02T02:51:29.689Z,22.00
2022-11-02T02:54:02.010Z,17.40
2022-11-02T02:56:33.122Z,20.33
2022-11-02T02:59:06.246Z,20.80
2022-11-02T03:01:35.158Z,19.00
2022-11-02T03:04:03.755Z,19.65
2022-11-02T03:06:33.981Z,19.23
2022-11-02T03:09:13.755Z,21.95
2022-11-02T03:12:04.052Z,20.90
2022-11-02T03:14:49.889Z,20.25
2022-11-02T03:17:27.108Z,19.08
2022-11-02T03:20:02.850Z,20.48
2022-11-02T03:22:35.376Z,18.48
2022-11-02T03:25:15.047Z,19.27
2022-11-02T03:27:52.167Z,17.25
2022-11-02T03:30:24.201Z,19.88
2022-11-02T03:33:01.300Z,19.23
2022-11-02T03:35:36.747Z,19.77
2022-11-02T03:38:12.192Z,20.50
2022-11-02T03:40:45.130Z,18.45
2022-11-02T03:43:16.028Z,19.63
2022-11-02T03:45:50.627Z,17.92
2022-11-02T03:48:20.538Z,17.85
2022-11-02T03:50:51.942Z,19.60
2022-11-02T03:53:28.153Z,18.27
2022-11-02T03:56:08.057Z,19.30
2022-11-02T03:58:38.280Z,18.85
2022-11-02T04:01:09.294Z,17.95
2022-11-02T04:03:43.913Z,18.15
2022-11-02T04:06:12.923Z,18.42
2022-11-02T04:08:43.889Z,18.63
2022-11-02T04:11:30.850Z,16.45
2022-11-02T04:14:21.828Z,16.77
2022-11-02T04:17:12.636Z,16.23
2022-11-02T04:19:47.021Z,16.75
2022-11-02T04:22:35.528Z,17.48
2022-11-02T04:25:18.760Z,16.38
2022-11-02T04:28:16.544Z,15.02
2022-11-02T04:31:04.969Z,15.52
2022-11-02T04:33:39.051Z,17.42
2022-11-02T04:36:10.572Z,15.77
2022-11-02T04:38:42.760Z,15.45
2022-11-02T04:41:43.195Z,15.30
2022-11-02T04:44:34.155Z,16.75
2022-11-02T04:47:10.318Z,17.27
2022-11-02T04:49:39.805Z,14.02
2022-11-02T04:52:11.802Z,17.38
2022-11-02T04:54:45.957Z,17.60
2022-11-02T04:57:13.980Z,18.50
2022-11-02T04:59:42.054Z,16.83
2022-11-02T05:02:10.225Z,17.33
2022-11-02T05:04:40.518Z,17.17
2022-11-02T05:07:09.771Z,16.10
2022-11-02T05:09:38.146Z,17.98
2022-11-02T05:12:07.064Z,15.95
2022-11-02T05:14:35.694Z,15.77
2022-11-02T05:17:04.292Z,15.73
2022-11-02T05:19:33.598Z,15.65
2022-11-02T05:22:04.710Z,15.82
2022-11-02T05:24:33.209Z,16.58
2022-11-02T05:27:02.204Z,15.60
2022-11-02T05:29:33.108Z,17.00
2022-11-02T05:32:01.379Z,16.27
2022-11-02T05:34:29.532Z,15.95
2022-11-02T05:36:57.816Z,18.15
2022-11-02T05:39:27.636Z,30.10
2022-11-02T05:41:55.631Z,43.17
2022-11-02T05:44:23.775Z,31.13
2022-11-02T05:46:52.088Z,22.50
2022-11-02T05:49:20.072Z,28.08
2022-11-02T05:51:49.178Z,26.58
2022-11-02T05:54:17.220Z,28.63
2022-11-02T05:56:46.741Z,22.42
2022-11-02T05:59:14.898Z,15.95
2022-11-02T06:01:42.959Z,14.27
2022-11-02T06:04:11.224Z,16.50
2022-11-02T06:06:39.717Z,16.55
2022-11-02T06:09:08.091Z,18.63
2022-11-02T06:11:36.242Z,15.63
2022-11-02T06:14:05.844Z,17.17
2022-11-02T06:16:33.880Z,15.82
2022-11-02T06:19:01.841Z,17.45
2022-11-02T06:21:30.110Z,19.00
2022-11-02T06:23:59.016Z,17.30
2022-11-02T06:26:27.044Z,17.63
2022-11-02T06:28:54.948Z,16.27
2022-11-02T06:31:24.304Z,16.92
2022-11-02T06:33:52.316Z,17.55
2022-11-02T06:36:20.252Z,18.38
2022-11-02T06:38:48.618Z,19.27
2022-11-02T06:41:16.540Z,20.70
2022-11-02T06:43:44.522Z,18.33
2022-11-02T06:46:12.730Z,20.52
2022-11-02T06:48:42.101Z,17.05
2022-11-02T06:51:10.089Z,16.00
2022-11-02T06:53:37.994Z,15.55
2022-11-02T06:56:06.633Z,20.70
2022-11-02T06:58:35.136Z,18.52
2022-11-02T07:01:08.248Z,23.52
2022-11-02T07:03:37.155Z,21.60
2022-11-02T07:06:12.913Z,24.90
2022-11-02T07:08:42.790Z,21.67
2022-11-02T07:11:14.532Z,23.20
2022-11-02T07:13:42.955Z,21.13
2022-11-02T07:16:10.921Z,18.10
2022-11-02T07:18:38.958Z,17.23
2022-11-02T07:21:11.527Z,15.13
2022-11-02T07:23:39.656Z,14.65
2022-11-02T07:26:07.718Z,14.02
2022-11-02T07:28:36.903Z,15.35
2022-11-02T07:31:05.490Z,17.15
2022-11-02T07:33:33.646Z,15.98
2022-11-02T07:36:05.432Z,13.50
2022-11-02T07:38:35.225Z,13.40
2022-11-02T07:41:03.334Z,13.25
2022-11-02T07:43:31.346Z,12.43
2022-11-02T07:46:16.567Z,14.68
2022-11-02T07:48:44.684Z,12.77
2022-11-02T07:51:12.749Z,13.80
2022-11-02T07:53:42.105Z,14.30
2022-11-02T07:56:10.076Z,12.07
2022-11-02T07:58:38.420Z,11.93
2022-11-02T08:01:06.662Z,12.90
2022-11-02T08:03:35.182Z,11.30
2022-11-02T08:06:04.020Z,12.00
2022-11-02T08:08:32.202Z,12.45
2022-11-02T08:11:07.866Z,11.93
2022-11-02T08:13:38.374Z,11.90
2022-11-02T08:16:06.794Z,12.15
2022-11-02T08:18:34.814Z,11.52
2022-11-02T08:21:03.200Z,10.65
2022-11-02T08:23:31.139Z,10.65
2022-11-02T08:26:00.452Z,10.10
2022-11-02T08:28:32.386Z,10.65
2022-11-02T08:31:00.577Z,9.52
2022-11-02T08:33:28.566Z,9.52
2022-11-02T08:36:02.862Z,8.68
2022-11-02T08:38:31.376Z,10.30
2022-11-02T08:40:59.406Z,8.93
2022-11-02T08:43:27.538Z,9.13
2022-11-02T08:46:15.702Z,9.05
2022-11-02T08:48:44.960Z,8.60
2022-11-02T08:51:12.988Z,8.48
2022-11-02T08:53:43.008Z,8.23
2022-11-02T08:56:14.160Z,7.75
2022-11-02T08:58:42.173Z,8.60
2022-11-02T09:01:11.695Z,7.47
2022-11-02T09:03:39.740Z,7.13
2022-11-02T09:06:07.997Z,8.55
2022-11-02T09:08:36.128Z,8.40
2022-11-02T09:11:05.167Z,7.10
2022-11-02T09:13:33.256Z,7.65
2022-11-02T09:16:02.717Z,7.20
2022-11-02T09:18:32.842Z,7.75
2022-11-02T09:21:03.077Z,6.80
2022-11-02T09:23:31.446Z,7.30
2022-11-02T09:26:00.104Z,7.43
2022-11-02T09:28:28.581Z,7.32
2022-11-02T09:30:56.500Z,6.95
2022-11-02T09:33:24.741Z,7.55
2022-11-02T09:35:54.178Z,7.38
2022-11-02T09:38:22.240Z,7.80
2022-11-02T09:41:02.333Z,6.72
2022-11-02T09:43:42.716Z,8.32
2022-11-02T09:46:14.472Z,6.82
2022-11-02T09:48:46.561Z,6.95
2022-11-02T09:51:19.112Z,8.25
2022-11-02T09:53:56.783Z,6.88
2022-11-02T09:56:25.383Z,7.20
2022-11-02T09:58:59.416Z,8.68
2022-11-02T10:01:39.077Z,8.13
2022-11-02T10:04:34.126Z,7.55
2022-11-02T10:07:10.992Z,8.10
2022-11-02T10:09:46.149Z,8.50
2022-11-02T10:12:16.743Z,7.28
2022-11-02T10:14:54.148Z,8.10
2022-11-02T10:17:26.756Z,8.05
2022-11-02T10:19:57.156Z,6.35
2022-11-02T10:22:30.383Z,6.95
2022-11-02T10:25:01.590Z,6.68
2022-11-02T10:27:33.359Z,6.18
2022-11-02T10:30:06.041Z,7.88
2022-11-02T10:32:37.603Z,7.22
2022-11-02T10:38:15.356Z,6.90
2022-11-02T10:41:01.119Z,7.10
2022-11-02T10:43:48.213Z,8.43
2022-11-02T10:46:31.114Z,8.30
2022-11-02T10:49:09.803Z,8.95
2022-11-02T10:51:37.817Z,7.60
2022-11-02T10:54:13.653Z,8.93
2022-11-02T10:56:43.217Z,9.23
2022-11-02T10:59:15.380Z,8.50
2022-11-02T11:01:48.534Z,7.68
2022-11-02T11:04:25.762Z,9.45
2022-11-02T11:06:56.637Z,8.80
2022-11-02T11:09:29.578Z,9.20
2022-11-02T11:12:00.673Z,8.48
2022-11-02T11:20:33.575Z,9.38
2022-11-02T11:23:19.455Z,10.30
2022-11-02T11:25:58.271Z,10.90
2022-11-02T11:28:29.430Z,9.73
2022-11-02T11:31:10.055Z,10.75
2022-11-02T11:33:54.407Z,9.77
2022-11-02T11:39:02.153Z,9.90
2022-11-02T11:41:34.369Z,9.88
2022-11-02T11:44:03.702Z,9.88
2022-11-02T11:46:43.199Z,8.98
2022-11-02T11:49:31.102Z,10.43
2022-11-02T11:52:05.382Z,11.23
2022-11-02T11:54:34.430Z,11.02
2022-11-02T11:57:28.337Z,10.88
2022-11-02T11:59:59.768Z,9.30
2022-11-02T12:02:30.315Z,10.82
2022-11-02T12:05:01.630Z,10.40
2022-11-02T12:07:56.001Z,9.85
2022-11-02T12:10:34.393Z,9.65
2022-11-02T12:13:20.993Z,10.20
2022-11-02T12:16:04.299Z,9.63
2022-11-02T12:18:43.096Z,11.50
2022-11-02T12:21:23.093Z,9.48
2022-11-02T12:24:13.582Z,9.13
2022-11-02T12:26:55.832Z,10.30
2022-11-02T12:29:43.740Z,9.60
2022-11-02T12:32:29.522Z,10.18
2022-11-02T12:35:28.396Z,8.88
2022-11-02T12:38:14.033Z,10.00
2022-11-02T12:40:56.012Z,8.45
2022-11-02T12:43:36.607Z,8.38
2022-11-02T12:46:18.276Z,9.80
2022-11-02T12:48:54.875Z,7.63
2022-11-02T12:51:25.990Z,7.78
2022-11-02T12:53:58.841Z,6.80
2022-11-02T12:56:32.131Z,8.95
2022-11-02T12:59:01.778Z,8.90
2022-11-02T13:01:36.474Z,8.48
2022-11-02T13:04:14.871Z,8.50
2022-11-02T13:06:47.965Z,7.75
2022-11-02T13:09:24.186Z,8.13
2022-11-02T13:11:57.933Z,7.75
2022-11-02T13:14:31.421Z,8.40
2022-11-02T13:17:07.143Z,8.10
2022-11-02T13:19:39.202Z,7.95
2022-11-02T13:22:11.513Z,9.02
2022-11-02T13:24:44.547Z,7.95
2022-11-02T13:27:36.990Z,8.95
2022-11-02T13:30:15.281Z,10.13
2022-11-02T13:32:48.259Z,7.38
2022-11-02T13:35:21.739Z,8.60
2022-11-02T13:37:55.338Z,8.88
2022-11-02T13:40:26.975Z,8.70
2022-11-02T13:43:31.357Z,8.50
2022-11-02T13:46:09.694Z,7.35
2022-11-02T13:48:50.175Z,7.95
2022-11-02T13:51:26.864Z,6.82
2022-11-02T13:54:00.162Z,6.20
2022-11-02T13:56:30.413Z,6.72
2022-11-02T13:59:02.746Z,6.57
2022-11-02T14:01:33.994Z,7.90
2022-11-02T14:04:07.750Z,6.68
2022-11-02T14:06:48.503Z,7.13
2022-11-02T14:09:25.617Z,7.15
2022-11-02T14:12:13.176Z,8.68
2022-11-02T14:14:41.640Z,7.50
2022-11-02T14:17:14.367Z,6.47
2022-11-02T14:20:32.934Z,6.50
2022-11-02T14:23:37.845Z,5.45
2022-11-02T14:26:06.608Z,3.88
2022-11-02T14:28:43.656Z,2.83
2022-11-02T14:31:38.044Z,2.47
2022-11-02T14:34:35.063Z,2.47
2022-11-02T14:37:47.790Z,3.50
2022-11-02T14:40:30.291Z,2.25
2022-11-02T14:43:14.326Z,1.75
2022-11-02T14:45:58.713Z,2.70
2022-11-02T14:48:31.692Z,1.63
2022-11-02T14:51:04.834Z,2.35
2022-11-02T14:53:36.303Z,2.13
2022-11-02T14:56:06.482Z,2.72
2022-11-02T14:58:38.945Z,2.38
2022-11-02T15:01:14.331Z,1.42
2022-11-02T15:03:43.637Z,2.10
2022-11-02T15:06:19.820Z,2.20
2022-11-02T15:08:54.348Z,4.15
2022-11-02T15:11:46.015Z,2.85
2022-11-02T15:14:33.855Z,4.47
2022-11-02T15:17:02.288Z,3.33
2022-11-02T15:19:43.904Z,2.20
2022-11-02T15:22:36.109Z,3.17
2022-11-02T15:25:10.751Z,2.90
2022-11-02T15:27:43.154Z,3.15
2022-11-02T15:30:15.717Z,3.13
2022-11-02T15:32:48.568Z,3.53
2022-11-02T15:35:20.453Z,3.78
2022-11-02T15:38:11.352Z,3.97
2022-11-02T15:40:49.495Z,4.43
2022-11-02T15:43:48.167Z,5.15
2022-11-02T15:46:30.869Z,5.40
2022-11-02T15:49:08.784Z,5.80
2022-11-02T15:51:47.741Z,6.00
2022-11-02T15:54:30.814Z,5.90
2022-11-02T15:57:12.778Z,5.20
2022-11-02T16:00:13.256Z,5.07
2022-11-02T16:02:44.729Z,6.03
2022-11-02T16:05:25.100Z,6.68
2022-11-02T16:08:11.403Z,7.85
2022-11-02T16:10:40.052Z,6.15
2022-11-02T16:13:17.825Z,6.57
2022-11-02T16:15:48.939Z,5.15
2022-11-02T16:18:29.164Z,5.30
2022-11-02T16:21:01.929Z,5.90
2022-11-02T16:23:50.905Z,5.15
2022-11-02T16:26:23.198Z,6.80
2022-11-02T16:28:53.389Z,6.00
2022-11-02T16:31:25.122Z,6.40
2022-11-02T16:33:55.228Z,6.60
2022-11-02T16:36:25.384Z,7.72
2022-11-02T16:38:59.975Z,7.32
2022-11-02T16:41:29.601Z,8.15
2022-11-02T16:43:59.728Z,9.18
2022-11-02T16:46:41.789Z,6.88
2022-11-02T16:49:19.594Z,6.72
2022-11-02T16:51:53.377Z,7.13
2022-11-02T16:54:31.512Z,5.90
2022-11-02T16:57:10.200Z,5.40
2022-11-02T16:59:49.748Z,7.75
2022-11-02T17:02:21.011Z,8.80
2022-11-02T17:07:28.702Z,11.73
2022-11-02T17:09:59.509Z,13.07
2022-11-02T17:12:33.760Z,14.93
2022-11-02T17:15:04.606Z,12.80
2022-11-02T17:17:38.205Z,12.90
2022-11-02T17:20:19.180Z,15.10
2022-11-02T17:22:53.256Z,13.68
2022-11-02T17:25:23.564Z,13.50
2022-11-02T17:27:52.643Z,9.27
2022-11-02T17:30:46.009Z,5.38
2022-11-02T17:33:25.083Z,6.75
2022-11-02T17:35:55.174Z,5.22
2022-11-02T17:38:27.130Z,5.32
2022-11-02T17:40:56.004Z,7.95
2022-11-02T17:43:23.895Z,6.45
2022-11-02T17:45:56.512Z,5.13
2022-11-02T17:48:28.534Z,5.50
2022-11-02T17:51:00.718Z,6.10
2022-11-02T17:53:28.962Z,5.47
2022-11-02T17:55:57.506Z,6.60
2022-11-02T17:58:25.637Z,5.82
2022-11-02T18:00:54.699Z,5.95
2022-11-02T18:03:29.999Z,5.65
2022-11-02T18:06:00.723Z,6.55
2022-11-02T18:08:29.307Z,6.05
2022-11-02T18:10:57.822Z,6.95
2022-11-02T18:13:25.931Z,6.32
2022-11-02T18:15:54.029Z,9.13
2022-11-02T18:18:22.040Z,7.50
2022-11-02T18:20:51.642Z,6.75
2022-11-02T18:23:20.438Z,12.45
2022-11-02T18:25:48.851Z,8.40
2022-11-02T18:28:17.317Z,10.73
2022-11-02T18:30:45.572Z,6.93
2022-11-02T18:33:14.357Z,6.78
2022-11-02T18:35:44.214Z,6.10
2022-11-02T18:38:13.825Z,7.00
2022-11-02T18:40:42.039Z,5.38
2022-11-02T18:43:10.224Z,6.00
2022-11-02T18:45:38.668Z,6.72
2022-11-02T18:48:07.653Z,6.90
2022-11-02T18:50:35.935Z,7.60
2022-11-02T18:53:04.232Z,7.75
2022-11-02T18:55:33.633Z,6.57
2022-11-02T18:58:01.734Z,8.77
2022-11-02T19:00:29.899Z,7.70
2022-11-02T19:02:58.281Z,5.82
2022-11-02T19:05:47.517Z,5.95
2022-11-02T19:08:33.352Z,6.63
2022-11-02T19:11:03.118Z,5.78
2022-11-02T19:13:31.236Z,6.28
2022-11-02T19:16:00.199Z,6.68
2022-11-02T19:18:28.798Z,5.90
2022-11-02T19:20:56.921Z,7.93
2022-11-02T19:23:27.989Z,7.93
2022-11-02T19:25:56.288Z,6.90
2022-11-02T19:28:25.803Z,7.05
2022-11-02T19:30:53.951Z,6.35
2022-11-02T19:33:22.035Z,7.00
2022-11-02T19:35:56.124Z,6.90
2022-11-02T19:38:24.551Z,6.53
2022-11-02T19:41:01.342Z,7.13
2022-11-02T19:43:30.928Z,7.18
2022-11-02T19:46:02.637Z,16.38
2022-11-02T19:48:31.467Z,13.20
2022-11-02T19:51:07.269Z,10.75
2022-11-02T19:53:35.920Z,8.48
2022-11-02T19:56:05.281Z,6.15
2022-11-02T19:58:34.890Z,6.28
2022-11-02T20:01:07.130Z,5.68
2022-11-02T20:03:35.780Z,7.45
2022-11-02T20:06:06.865Z,6.45
2022-11-02T20:08:35.090Z,6.85
2022-11-02T20:11:04.744Z,6.57
2022-11-02T20:13:35.506Z,7.25
2022-11-02T20:16:04.206Z,6.90
2022-11-02T20:18:32.768Z,6.90
2022-11-02T20:21:05.559Z,7.00
2022-11-02T20:23:34.693Z,5.10
2022-11-02T20:26:04.290Z,4.70
2022-11-02T20:28:37.926Z,5.70
2022-11-02T20:31:09.572Z,4.40
2022-11-02T20:33:38.803Z,4.68
2022-11-02T20:36:07.953Z,4.40
2022-11-02T20:38:36.945Z,12.77
2022-11-02T20:41:07.101Z,16.42
2022-11-02T20:43:36.984Z,48.60
2022-11-02T20:46:31.604Z,8.40
2022-11-02T20:48:59.315Z,8.02
2022-11-02T20:51:32.807Z,5.70
2022-11-02T20:54:03.255Z,5.07
2022-11-02T20:56:31.510Z,4.32
2022-11-02T20:59:00.862Z,4.45
2022-11-02T21:01:29.021Z,4.47
2022-11-02T21:03:57.143Z,5.00
2022-11-02T21:06:25.200Z,4.75
2022-11-02T21:08:53.180Z,3.60
2022-11-02T21:11:39.289Z,4.55
2022-11-02T21:14:08.928Z,6.00
2022-11-02T21:16:36.977Z,4.00
2022-11-02T21:19:05.264Z,4.60
2022-11-02T21:21:33.308Z,4.47
2022-11-02T21:24:01.444Z,4.20
2022-11-02T21:26:29.749Z,6.07
2022-11-02T21:28:57.732Z,4.22
2022-11-02T21:31:27.070Z,4.13
2022-11-02T21:33:55.251Z,3.95
2022-11-02T21:36:23.162Z,4.85
2022-11-02T21:38:51.128Z,4.10
2022-11-02T21:41:21.361Z,4.57
2022-11-02T21:43:51.938Z,4.50
2022-11-02T21:46:20.266Z,3.83
2022-11-02T21:48:49.696Z,3.08
2022-11-02T21:51:19.909Z,4.40
2022-11-02T21:53:49.256Z,4.20
2022-11-02T21:56:19.239Z,4.22
2022-11-02T21:58:47.857Z,3.85
2022-11-02T22:01:35.521Z,4.40
2022-11-02T22:04:05.403Z,3.33
2022-11-02T22:06:33.439Z,4.50
2022-11-02T22:09:02.369Z,4.78
2022-11-02T22:11:30.279Z,4.40
2022-11-02T22:13:59.766Z,4.63
2022-11-02T22:16:29.395Z,4.07
2022-11-02T22:18:59.276Z,5.15
2022-11-02T22:21:30.940Z,5.00
2022-11-02T22:23:59.201Z,6.07
2022-11-02T22:26:29.236Z,6.70
2022-11-02T22:28:58.291Z,5.65
2022-11-02T22:31:28.225Z,5.90
2022-11-02T22:33:58.127Z,5.95
2022-11-02T22:36:29.755Z,5.28
2022-11-02T22:38:59.105Z,5.00
2022-11-02T22:41:29.403Z,5.07
2022-11-02T22:43:59.433Z,5.00
2022-11-02T22:46:28.596Z,5.57
2022-11-02T22:48:58.109Z,5.35
2022-11-02T22:51:28.036Z,4.85
2022-11-02T22:54:01.755Z,5.10
2022-11-02T22:56:30.036Z,4.63
2022-11-02T22:58:59.452Z,5.10
2022-11-02T23:01:28.963Z,5.40
2022-11-02T23:03:57.815Z,5.45
2022-11-02T23:06:26.915Z,4.30
2022-11-02T23:08:59.089Z,4.40
2022-11-02T23:11:28.248Z,4.90
2022-11-02T23:13:58.237Z,5.05
2022-11-02T23:16:28.329Z,5.70
2022-11-02T23:19:20.319Z,4.57
2022-11-02T23:22:10.437Z,4.30
2022-11-02T23:24:58.771Z,4.45
2022-11-02T23:27:27.625Z,4.25
2022-11-02T23:30:13.193Z,4.35
2022-11-02T23:32:41.235Z,4.68
2022-11-02T23:35:35.470Z,4.35
2022-11-02T23:38:07.641Z,4.30
2022-11-02T23:40:37.265Z,5.70
2022-11-02T23:43:07.958Z,4.28
2022-11-02T23:45:36.797Z,5.15
2022-11-02T23:48:07.280Z,4.07
2022-11-02T23:50:53.525Z,3.75
2022-11-02T23:53:41.453Z,3.97
2022-11-02T23:56:33.033Z,3.47
2022-11-02T23:59:07.344Z,4.45
